NCAR-RAP Real-Time Weather Data

Output produced by METARs form (12 May 2021  11:12 UTC)
found at http://weather.rap.ucar.edu/surface/
 
KCYS 121109Z AUTO 21008KT 10SM SCT002 OVC015 01/01 A3025 RMK AO2 T00110011 $
KCYS 121100Z AUTO 21008KT 7SM BKN002 OVC017 01/01 A3025 RMK AO2 T00110011 $
KCYS 121053Z AUTO 21009KT 2 1/2SM BR BKN002 OVC017 01/01 A3025 RMK AO2 SLP258 T00110011 $
KCYS 121043Z AUTO 21007KT 2SM BR OVC002 01/01 A3025 RMK AO2 T00110011 $
KCYS 121016Z AUTO 19010KT 1 3/4SM BR OVC002 01/01 A3024 RMK AO2 T00110011 $
KCYS 120959Z AUTO 20010KT 3SM BR OVC002 01/01 A3025 RMK AO2 T00110011 $
KCYS 120948Z AUTO 19010KT 1SM BR VV002 01/01 A3025 RMK AO2 SLP259 T00110011 RVRNO $
KCYS 120947Z AUTO 19009KT 1SM BR VV002 01/01 A3025 RMK AO2 RVRNO $
KCYS 120900Z AUTO 17010KT 1/4SM FG VV002 01/01 A3025 RMK AO2 T00110011 RVRNO $
KCYS 120853Z AUTO 18010KT 1/2SM FG VV002 01/01 A3025 RMK AO2 SLP259 I1000 I3000 T00110011 56005 RVRNO $
KCYS 120823Z AUTO 17009KT 1/4SM FG VV002 01/01 A3025 RMK AO2 T00110011 RVRNO $
KCYS 120813Z AUTO 18010KT 1/2SM FG VV002 02/02 A3025 RMK AO2 T00170017 RVRNO $
KCYS 120802Z AUTO 18009KT 1 3/4SM BR OVC002 02/02 A3026 RMK AO2 VIS 1V5 T00170017 $
KCYS 120753Z AUTO 18011KT 9SM OVC003 02/01 A3025 RMK AO2 SLP256 T00170011 $
KCYS 120717Z AUTO 18010KT 10SM OVC002 02/02 A3027 RMK AO2 T00170017 $
KCYS 120710Z AUTO 18010KT 2 1/2SM BR OVC002 02/02 A3027 RMK AO2 T00170017 $
KCYS 120703Z AUTO 18011KT 3/4SM BR VV002 02/02 A3027 RMK AO2 T00170017 RVRNO $
KCYS 120653Z AUTO 17010KT 1/4SM FG VV002 02/02 A3027 RMK AO2 SLP262 I1000 T00170017 400171006 RVRNO $
KCYS 120645Z AUTO 17008KT 1/4SM FG VV002 02/02 A3027 RMK AO2 I1000 T00170017 RVRNO $
KCYS 120637Z AUTO 17010KT 1 3/4SM BR OVC002 02/01 A3027 RMK AO2 T00170011 $
KCYS 120608Z AUTO 17012KT 9SM OVC002 02/01 A3027 RMK AO2 T00170011 $
KCYS 120600Z AUTO 16012KT 2 1/2SM BR OVC002 02/02 A3028 RMK AO2 T00170017 $
KCYS 120553Z AUTO 16013KT 3SM BR OVC003 02/01 A3028 RMK AO2 SLP269 T00170011 10017 20011 50000 $
KCYS 120453Z AUTO 16010KT 10SM BKN004 OVC012 02/01 A3029 RMK AO2 SLP272 T00170011 $
KCYS 120404Z AUTO 16010KT 10SM BKN004 OVC016 02/01 A3029 RMK AO2 T00170011 $
KCYS 120353Z 10SM SCT004 OVC016 02/01 A3029 RMK AO2 SLP274 T00170011 $
KCYS 120253Z 10SM FEW005 BKN023 OVC031 02/01 A3028 RMK AO2 SLP269 T00170011 51008
KCYS 120249Z 10SM SCT005 BKN023 OVC029 02/01 A3028 RMK AO2
KCYS 120153Z 16009KT 10SM BKN005 OVC027 02/01 A3026 RMK AO2 SLP263 T00170011
KCYS 120053Z 15008G17KT 10SM BKN005 OVC019 02/01 A3025 RMK AO2 SLP262 T00170011
KCYS 120037Z 15010KT 10SM SCT005 OVC017 02/01 A3025 RMK AO2 T00170011
KCYS 120018Z 15012KT 10SM BKN006 OVC014 02/01 A3025 RMK AO2 CIG 004V009 T00170006
KCYS 112353Z 15013KT 5SM BR BKN002 OVC007 01/01 A3025 RMK AO2 CIG 002V005 SLP262 60001 I6000 T00110006 10011 20006 51004
KCYS 112350Z 15012KT 4SM BR OVC002 01/01 A3025 RMK AO2 CIG 002V007
KCYS 112335Z 15011KT 2SM BR OVC002 01/01 A3025 RMK AO2 T00110006
KCYS 112253Z 15009KT 3SM BR OVC003 01/01 A3024 RMK AO2 SLP258 I1000 T00110006